M I D A S
Marine Information and Data Acquisition System
Tripno 273 of the Zeeleeuw from 2002-05-03 06:46:01 to 2002-05-03 16:02:10
Back to CruiseResearch ActivitiesStationsMapUnderway DataData graphs

EquipmentUnitsComment
TimeDGPSUTC
LatitudeDGPSDM.mWGS84
LongitudeDGPSDM.mWGS84
HeadingGyrodeg 
SOGDGPSknotsSpeed over ground
COGDGPSdegCourse over ground
DepthEcho soundermeters200 kHz
Missing or incorrect values are displayed as -999
Navigation data collected by the RV Zeeleeuw from 2002-05-03 06:46:01 to 2002-05-03 16:02:10
Time Latitude Longitude Heading SOG COG Depth
2002-05-03 06:47:06 51°13.698 2°55.791 99 3.4 276.9 -999
2002-05-03 06:48:05 51°13.705 2°55.76 71.5 0.5 39.4 15.2
2002-05-03 06:49:06 51°13.702 2°55.739 41.2 1.1 36.1 -999
2002-05-03 06:50:06 51°13.692 2°55.73 19 1.6 203.7 -999
2002-05-03 06:51:05 51°13.7 2°55.72 358.3 3.2 353.3 13.8
2002-05-03 06:52:06 51°13.786 2°55.673 339.7 5.9 336.9 11.7
2002-05-03 06:53:05 51°13.889 2°55.593 335.7 7.4 333.2 11.6
2002-05-03 06:54:06 51°14.004 2°55.508 339 7.5 335.8 12.1
2002-05-03 06:55:06 51°14.118 2°55.423 335.2 7.6 332.3 12.3
2002-05-03 06:56:05 51°14.225 2°55.316 325.8 7.6 323 12.2
2002-05-03 06:57:06 51°14.317 2°55.169 310.7 7.8 307.8 12.2
2002-05-03 06:58:05 51°14.401 2°55.011 318.5 8.2 314 11.6
2002-05-03 06:59:06 51°14.545 2°54.831 330.5 11.7 326.9 11
2002-05-03 07:00:05 51°14.726 2°54.726 346.8 11.8 344.3 11
2002-05-03 07:01:06 51°14.929 2°54.714 7.8 12.1 5.7 10.5
2002-05-03 07:02:06 51°15.122 2°54.801 24.3 12.1 22 9.6
2002-05-03 07:03:05 51°15.303 2°54.934 31.3 12 28.6 9.7
2002-05-03 07:04:05 51°15.469 2°55.115 43.3 12.1 40.1 10
2002-05-03 07:05:06 51°15.619 2°55.345 45.3 12.9 42.6 10.2
2002-05-03 07:06:06 51°15.786 2°55.582 43.3 13.5 40.7 10.3
2002-05-03 07:07:05 51°15.95 2°55.822 44.2 13.6 42 10.4
2002-05-03 07:08:05 51°16.086 2°56.106 62.5 13.5 59.9 10.7
2002-05-03 07:09:06 51°16.203 2°56.418 59.3 13.5 56.4 10.6
2002-05-03 07:10:06 51°16.326 2°56.719 59.2 13.5 56.4 10.6
2002-05-03 07:11:06 51°16.448 2°57.021 58.7 13.5 56.2 10.7
2002-05-03 07:12:06 51°16.568 2°57.325 61.5 13.5 58.9 10.7
2002-05-03 07:13:06 51°16.681 2°57.634 62.5 13.5 59.4 10.6
2002-05-03 07:14:06 51°16.797 2°57.94 60.5 13.5 58 10.7
2002-05-03 07:15:05 51°16.911 2°58.244 62.7 13.6 59.2 10.6
2002-05-03 07:16:06 51°17.029 2°58.56 62.7 13.7 60.3 10.6
2002-05-03 07:17:05 51°17.144 2°58.867 62.7 13.7 60.1 10.5
2002-05-03 07:18:05 51°17.255 2°59.184 65.8 13.7 63.3 10.4
2002-05-03 07:19:05 51°17.361 2°59.508 64.8 13.8 62.1 10.5
2002-05-03 07:20:05 51°17.476 2°59.822 59.2 13.7 56.5 10.3
2002-05-03 07:21:05 51°17.604 3°0.125 60.3 13.7 57.7 10.1
2002-05-03 07:22:05 51°17.727 3°0.43 60.3 13.7 57.5 9.9
2002-05-03 07:23:05 51°17.851 3°0.735 59.5 13.7 57.2 9.7
2002-05-03 07:24:05 51°17.975 3°1.04 58.8 13.7 56 9.7
2002-05-03 07:25:06 51°18.103 3°1.351 59.5 13.8 56.5 9.6
2002-05-03 07:26:05 51°18.224 3°1.654 60.2 13.7 57.7 9.2
2002-05-03 07:27:06 51°18.349 3°1.962 59.8 13.6 57.6 9.5
2002-05-03 07:28:06 51°18.472 3°2.262 59.7 13.5 57.5 9.2
2002-05-03 07:29:05 51°18.592 3°2.555 59.2 13.4 56 8.7
2002-05-03 07:30:06 51°18.714 3°2.857 59.7 13.3 56.6 8.4
2002-05-03 07:31:06 51°18.834 3°3.154 60.5 13.3 57.4 8.9
2002-05-03 07:32:06 51°18.956 3°3.448 60 13.3 56.8 8.9
2002-05-03 07:33:06 51°19.079 3°3.744 59.5 13.4 56.1 8.8
2002-05-03 07:34:05 51°19.199 3°4.034 58.2 13.3 55 9.1
2002-05-03 07:35:06 51°19.323 3°4.33 59.8 13.2 56 8.9
2002-05-03 07:36:05 51°19.459 3°4.594 46.5 13.2 42.9 8.9
2002-05-03 07:37:06 51°19.616 3°4.842 49.8 13 46.6 8.9
2002-05-03 07:38:06 51°19.763 3°5.093 50.5 12.9 47.2 8.8
2002-05-03 07:39:05 51°19.908 3°5.337 50 12.9 46.8 8.8
2002-05-03 07:40:05 51°20.056 3°5.583 49.8 12.8 45.9 8.7
2002-05-03 07:41:06 51°20.207 3°5.831 50.3 12.8 46.2 8.6
2002-05-03 07:42:06 51°20.354 3°6.076 50 12.8 46.1 8.5
2002-05-03 07:43:06 51°20.5 3°6.321 51.5 12.7 47.3 8.4
2002-05-03 07:44:06 51°20.647 3°6.565 50.2 12.7 46.8 8.3
2002-05-03 07:45:06 51°20.795 3°6.809 50 12.8 46.2 8.4
2002-05-03 07:46:06 51°20.943 3°7.054 49.3 12.9 45.6 8.4
2002-05-03 07:47:06 51°21.092 3°7.3 48.8 12.8 45.2 8.8
2002-05-03 07:48:06 51°21.256 3°7.524 44.8 13 39.3 9.4
2002-05-03 07:49:06 51°21.42 3°7.749 46 13 41.8 10.1
2002-05-03 07:50:06 51°21.584 3°7.977 44.3 13 40.8 11
2002-05-03 07:51:05 51°21.745 3°8.202 44 13.1 40.6 11.5
2002-05-03 07:52:05 51°21.909 3°8.428 43.5 13.1 40 12.1
2002-05-03 07:53:05 51°22.072 3°8.659 43.5 13 40.7 12.6
2002-05-03 07:54:06 51°22.244 3°8.88 43.3 13.1 39.3 13.2
2002-05-03 07:55:06 51°22.414 3°9.095 44.5 13 39.7 13.5
2002-05-03 07:56:06 51°22.57 3°9.274 30.2 8.4 26.2 13.9
2002-05-03 07:57:06 51°22.661 3°9.287 358 4.3 351 14
2002-05-03 07:58:06 51°22.728 3°9.283 31 4.3 20.3 14
2002-05-03 07:59:06 51°22.755 3°9.32 87 0.2 327.9 14.1
2002-05-03 08:00:06 51°22.721 3°9.365 146.3 4.3 150.3 13.9
2002-05-03 08:01:06 51°22.701 3°9.371 183.3 0.5 229 13.9
2002-05-03 08:02:05 51°22.695 3°9.359 192.5 0.6 237 14
2002-05-03 08:03:06 51°22.689 3°9.344 198 0.7 235.8 13.9
2002-05-03 08:04:06 51°22.682 3°9.328 202.3 0.8 236 13.8
2002-05-03 08:05:06 51°22.674 3°9.31 206 0.8 235.3 13.8
2002-05-03 08:06:06 51°22.666 3°9.291 208.2 0.9 234.6 13.9
2002-05-03 08:07:06 51°22.657 3°9.271 209 0.9 237.4 13.9
2002-05-03 08:08:05 51°22.649 3°9.251 209.8 0.9 235.1 13.8
2002-05-03 08:09:05 51°22.64 3°9.229 211 1 235.4 13.9
2002-05-03 08:10:06 51°22.63 3°9.208 212 1 234.4 13.8
2002-05-03 08:11:06 51°22.621 3°9.186 213.5 1 235.5 13.7
2002-05-03 08:12:05 51°22.612 3°9.164 215.3 1 236.6 13.7
2002-05-03 08:13:05 51°22.602 3°9.142 217.7 1 236.2 13.7
2002-05-03 08:14:06 51°22.594 3°9.118 220.8 1 236.6 13.7
2002-05-03 08:15:06 51°22.584 3°9.093 223.2 1.1 240 13.7
2002-05-03 08:16:05 51°22.569 3°9.033 268.2 4.3 262.7 13.7
2002-05-03 08:17:06 51°22.618 3°8.941 2.8 4.9 347.5 13.5
2002-05-03 08:18:06 51°22.663 3°9.016 87.7 4.2 82 13.6
2002-05-03 08:19:05 51°22.667 3°9.114 85.2 3.6 82.8 13.6
2002-05-03 08:20:06 51°22.676 3°9.209 86 3.5 82.9 13.7
2002-05-03 08:21:06 51°22.681 3°9.319 86.8 4.9 84.1 13.6
2002-05-03 08:22:05 51°22.705 3°9.452 76 5.4 70.4 13.7
2002-05-03 08:23:05 51°22.723 3°9.505 73.7 0.3 357.8 13.8
2002-05-03 08:24:06 51°22.725 3°9.504 77.7 0.1 347.9 13.8
2002-05-03 08:25:06 51°22.726 3°9.502 78.3 0.1 326.2 13.7
2002-05-03 08:26:06 51°22.727 3°9.498 73.8 0.2 296.5 13.7
2002-05-03 08:27:05 51°22.728 3°9.493 70.5 0.2 277.4 13.7
2002-05-03 08:28:06 51°22.729 3°9.486 67.8 0.3 276.9 13.7
2002-05-03 08:29:06 51°22.73 3°9.478 66 0.3 288.2 13.7
2002-05-03 08:30:06 51°22.731 3°9.469 65.3 0.3 282.7 13.7
2002-05-03 08:31:05 51°22.729 3°9.458 65.8 0.4 274 13.6
2002-05-03 08:32:06 51°22.728 3°9.454 69.3 0.1 355.5 13.6
2002-05-03 08:33:06 51°22.734 3°9.457 72.5 0.4 40.4 13.6
2002-05-03 08:34:05 51°22.741 3°9.467 78 0.6 52.9 13.6
2002-05-03 08:35:06 51°22.747 3°9.481 82.8 0.7 61.7 13.5
2002-05-03 08:36:06 51°22.751 3°9.497 90.5 0.6 72.5 13.6
2002-05-03 08:37:05 51°22.752 3°9.512 96.3 0.6 83.2 13.6
2002-05-03 08:38:05 51°22.749 3°9.524 101.8 0.5 122 13.6
2002-05-03 08:39:05 51°22.745 3°9.534 105.7 0.4 119.4 13.5
2002-05-03 08:40:05 51°22.741 3°9.541 108.2 0.3 133.4 13.5
2002-05-03 08:41:06 51°22.734 3°9.547 109.8 0.4 147.4 13.6
2002-05-03 08:42:06 51°22.728 3°9.553 111 0.4 153.7 13.7
2002-05-03 08:43:06 51°22.722 3°9.559 112 0.4 144.2 13.6
2002-05-03 08:44:05 51°22.758 3°9.65 34.2 7.4 26.4 14.8
2002-05-03 08:45:06 51°22.923 3°9.616 343 12.5 337.3 17.1
2002-05-03 08:46:06 51°23.108 3°9.408 323.7 14.1 318 17.9
2002-05-03 08:47:06 51°23.277 3°9.143 321.7 14.3 316.3 17.7
2002-05-03 08:48:06 51°23.423 3°8.85 303 14.4 299.8 16.7
2002-05-03 08:49:05 51°23.546 3°8.53 306.7 14.3 303.8 17.2
2002-05-03 08:50:06 51°23.686 3°8.214 314.5 14.3 308.1 18
2002-05-03 08:51:06 51°23.831 3°7.911 311.5 14.3 305.5 18.2
2002-05-03 08:52:06 51°23.964 3°7.593 306.5 14.4 302.4 18.6
2002-05-03 08:53:05 51°24.064 3°7.257 289.7 14.4 286.6 18.6
2002-05-03 08:54:06 51°24.143 3°6.891 296.8 13.3 292.3 17.4
2002-05-03 08:55:06 51°24.243 3°6.766 4.5 5.2 346.7 14.6
2002-05-03 08:56:06 51°24.3 3°6.8 68.5 3 48.9 13.3
2002-05-03 08:57:06 51°24.32 3°6.868 82.7 3.2 70.3 13.2
2002-05-03 08:58:06 51°24.339 3°6.972 78.2 3.8 67 12.9
2002-05-03 08:59:06 51°24.355 3°6.984 54.5 0.9 354.1 12.8
2002-05-03 09:00:05 51°24.369 3°6.976 40.7 1 335.9 12.6
2002-05-03 09:01:06 51°24.382 3°6.963 34.2 0.8 317.5 12.4
2002-05-03 09:02:06 51°24.377 3°6.926 48 2.2 248.7 -999
2002-05-03 09:03:06 51°24.357 3°6.852 58.3 3.6 246.8 -999
2002-05-03 09:04:06 51°24.343 3°6.766 73.2 1.9 267.5 12.7
2002-05-03 09:05:06 51°24.353 3°6.836 92.2 3.8 83.1 12.8
2002-05-03 09:06:06 51°24.368 3°6.873 62.2 1.3 29.6 12.5
2002-05-03 09:07:06 51°24.385 3°6.887 66.3 1.1 29.6 12.3
2002-05-03 09:08:06 51°24.399 3°6.899 80.3 0.8 36.1 12.1
2002-05-03 09:09:06 51°24.406 3°6.912 91.8 0.6 54.5 12
2002-05-03 09:10:05 51°24.411 3°6.926 91.8 0.6 63.5 12
2002-05-03 09:11:06 51°24.412 3°6.938 107.8 0.6 112.2 12
2002-05-03 09:12:06 51°24.366 3°6.966 163.2 4.3 173.1 12.5
2002-05-03 09:13:06 51°24.314 3°6.977 144.2 2.3 163.3 13.1
2002-05-03 09:14:06 51°24.3 3°6.973 120.7 0.9 265.1 13.4
2002-05-03 09:15:06 51°24.299 3°6.969 86 0.1 340.5 13.3
2002-05-03 09:16:05 51°24.302 3°6.968 92.2 0.1 6.9 13.4
2002-05-03 09:17:06 51°24.301 3°6.969 109.7 0.2 158.7 13.4
2002-05-03 09:18:06 51°24.295 3°6.968 112.8 0.3 186.9 13.5
2002-05-03 09:19:06 51°24.294 3°6.968 89.8 0.1 355.3 13.5
2002-05-03 09:20:06 51°24.298 3°6.966 86.2 0.2 345.2 13.4
2002-05-03 09:21:06 51°24.3 3°6.966 101.7 0.1 128.3 13.3
2002-05-03 09:22:06 51°24.297 3°6.968 101.2 0.2 127.1 13.4
2002-05-03 09:23:06 51°24.296 3°6.972 93.8 0.2 84.7 13.4
2002-05-03 09:24:06 51°24.298 3°6.975 85 0.2 50.2 13.2
2002-05-03 09:25:06 51°24.303 3°6.977 80.5 0.3 9.3 13.3
2002-05-03 09:26:06 51°24.308 3°6.979 81.5 0.3 28 13.2
2002-05-03 09:27:06 51°24.312 3°6.983 83.8 0.3 38.9 12.9
2002-05-03 09:28:06 51°24.315 3°6.988 88.3 0.2 55 13
2002-05-03 09:29:06 51°24.314 3°6.993 103.3 0.2 139 13
2002-05-03 09:30:06 51°24.306 3°6.991 126.5 0.7 190.7 13.2
2002-05-03 09:31:06 51°24.291 3°6.984 138.8 1 199.8 13.5
2002-05-03 09:32:05 51°24.273 3°6.976 137.7 1.1 196 13.9
2002-05-03 09:33:06 51°24.255 3°6.968 134.3 1.1 195.2 14.3
2002-05-03 09:34:05 51°24.24 3°6.959 128.8 0.9 197.2 14.3
2002-05-03 09:35:06 51°24.226 3°6.951 122.8 0.8 200.9 14.6
2002-05-03 09:36:05 51°24.219 3°6.953 93.5 0.6 84.9 14.7
2002-05-03 09:37:06 51°24.252 3°6.973 24.7 4 3.7 14.2
2002-05-03 09:38:05 51°24.346 3°6.992 25.8 6.6 11.3 12.3
2002-05-03 09:39:06 51°24.468 3°7.019 19 7.6 5.7 11.4
2002-05-03 09:40:06 51°24.596 3°7.039 19.2 7.8 6.2 10.9
2002-05-03 09:41:06 51°24.725 3°7.05 13.8 7.9 1.3 10.7
2002-05-03 09:42:06 51°24.856 3°7.058 15 7.9 3 10.2
2002-05-03 09:43:06 51°24.987 3°7.068 14.7 7.8 3.1 9.7
2002-05-03 09:44:06 51°25.118 3°7.081 15 7.9 4 9
2002-05-03 09:45:06 51°25.25 3°7.095 14.8 7.9 4.2 9.1
2002-05-03 09:46:06 51°25.381 3°7.112 15 7.9 4.9 9.4
2002-05-03 09:47:06 51°25.513 3°7.131 14.7 7.9 5.4 9.6
2002-05-03 09:48:06 51°25.642 3°7.166 21.5 7.8 12.2 9.8
2002-05-03 09:49:06 51°25.769 3°7.205 19.5 7.8 10.9 9.7
2002-05-03 09:50:06 51°25.893 3°7.257 27 7.6 18 9.5
2002-05-03 09:51:06 51°26.016 3°7.317 24.5 7.7 16.4 9.2
2002-05-03 09:52:06 51°26.138 3°7.377 25 7.6 17.7 8.6
2002-05-03 09:53:06 51°26.259 3°7.437 25 7.6 17.4 9.3
2002-05-03 09:54:06 51°26.379 3°7.496 25.2 7.6 18 9.8
2002-05-03 09:55:06 51°26.5 3°7.557 25.2 7.6 17.7 10
2002-05-03 09:56:06 51°26.621 3°7.618 24.8 7.6 17.6 10.2
2002-05-03 09:57:06 51°26.742 3°7.678 24.3 7.6 16.7 10.4
2002-05-03 09:58:06 51°26.86 3°7.741 28.8 7.5 20.9 10.8
2002-05-03 09:59:06 51°26.975 3°7.822 30.7 7.5 23.5 10.1
2002-05-03 10:00:06 51°27.086 3°7.908 36.8 7.4 29.3 10.8
2002-05-03 10:01:06 51°27.195 3°8.003 34.7 7.5 27.9 11.5
2002-05-03 10:02:06 51°27.305 3°8.095 35.3 7.4 28.9 11.6
2002-05-03 10:03:06 51°27.413 3°8.187 34.7 7.3 27.9 11.9
2002-05-03 10:04:06 51°27.52 3°8.279 34.8 7.3 28.6 12.1
2002-05-03 10:05:06 51°27.62 3°8.386 48.5 7.2 42.1 12.4
2002-05-03 10:06:06 51°27.701 3°8.529 48 7.2 44 12.6
2002-05-03 10:07:06 51°27.782 3°8.639 44.2 5.2 38.6 13.1
2002-05-03 10:08:05 51°27.835 3°8.71 50 3.7 44 13.1
2002-05-03 10:09:06 51°27.875 3°8.77 46 3 40.2 13
2002-05-03 10:10:06 51°27.912 3°8.816 45.5 2.8 38.3 13
2002-05-03 10:11:06 51°27.946 3°8.862 46.3 2.6 39.3 13.4
2002-05-03 10:12:06 51°27.98 3°8.904 45 2.6 38 13.3
2002-05-03 10:13:06 51°28.002 3°8.949 74.7 1.8 72.6 13.2
2002-05-03 10:14:06 51°27.999 3°8.981 100.2 0.7 132.7 13.2
2002-05-03 10:15:06 51°27.989 3°8.995 94.7 0.8 135.5 13.1
2002-05-03 10:16:06 51°27.984 3°9.009 74.8 0.6 111.3 13.1
2002-05-03 10:17:06 51°27.984 3°9.02 56.7 0.4 62.3 13.1
2002-05-03 10:18:06 51°27.99 3°9.026 39.5 0.4 22.2 13.1
2002-05-03 10:19:06 51°28 3°9.025 26 0.7 352.8 13.1
2002-05-03 10:20:06 51°28.013 3°9.02 19.8 0.8 341.5 13.2
2002-05-03 10:21:06 51°28.023 3°9.016 29.3 0.5 358.1 13.2
2002-05-03 10:22:06 51°28.027 3°9.014 39.5 0.2 345.6 13.2
2002-05-03 10:23:06 51°28.027 3°9.012 49.5 0.1 202.3 13.2
2002-05-03 10:24:06 51°28.024 3°9.01 58.7 0.3 199.2 13.2
2002-05-03 10:25:06 51°28.019 3°9.006 66 0.3 199.2 13.1
2002-05-03 10:26:06 51°28.012 3°9.002 72 0.4 202.6 13.1
2002-05-03 10:27:06 51°28.004 3°8.998 76.2 0.4 207.5 13.1
2002-05-03 10:28:06 51°27.996 3°8.994 76.2 0.5 185.9 13.1
2002-05-03 10:29:06 51°27.988 3°8.993 75.3 0.5 169.1 13.1
2002-05-03 10:30:06 51°27.982 3°9 72.8 0.5 125.3 13
2002-05-03 10:31:06 51°27.979 3°9.013 61.5 0.5 90 13
2002-05-03 10:32:06 51°27.982 3°9.025 44.7 0.5 57.9 13
2002-05-03 10:33:06 51°27.99 3°9.031 27.5 0.6 9 13
2002-05-03 10:34:06 51°28.002 3°9.024 5.7 1 329.8 13.1
2002-05-03 10:35:06 51°28.018 3°9.007 356.8 1.3 325 13.1
2002-05-03 10:36:06 51°28.037 3°8.986 359.5 1.3 328.4 13.2
2002-05-03 10:37:06 51°28.052 3°8.977 31.5 0.8 2.6 12.9
2002-05-03 10:38:06 51°28.057 3°8.988 68.8 0.6 95.7 13.1
2002-05-03 10:39:06 51°28.05 3°9.005 95.5 1 132.3 12.7
2002-05-03 10:40:06 51°28.036 3°9.023 100.5 1 147.3 13.2
2002-05-03 10:41:06 51°28.023 3°9.034 91 0.9 155.8 13.1
2002-05-03 10:42:06 51°28.012 3°9.04 84.7 0.8 167.6 13
2002-05-03 10:43:06 51°28.001 3°9.043 73.3 0.6 166.4 12.9
2002-05-03 10:44:06 51°27.994 3°9.047 60.5 0.4 148.1 13
2002-05-03 10:45:06 51°27.991 3°9.052 46.5 0.3 99.9 13
2002-05-03 10:46:06 51°27.991 3°9.065 65.8 0.7 94.4 12.9
2002-05-03 10:47:05 51°27.983 3°9.089 97.3 1.3 128.3 12.9
2002-05-03 10:48:06 51°27.96 3°9.116 130.5 2 154.3 12.7
2002-05-03 10:49:06 51°27.923 3°9.124 167.5 2.5 182.8 12.7
2002-05-03 10:50:06 51°27.881 3°9.104 200.3 2.7 205.5 12.6
2002-05-03 10:51:06 51°27.846 3°9.065 223.2 2.5 219.5 12.6
2002-05-03 10:52:06 51°27.823 3°8.929 281.8 8.6 271.7 12.5
2002-05-03 10:53:06 51°27.88 3°8.623 294.7 13.3 287.8 12.9
2002-05-03 10:54:06 51°27.95 3°8.278 294.8 13.8 288.1 12.3
2002-05-03 10:55:06 51°28.022 3°7.926 294.8 13.9 288.1 11.9
2002-05-03 10:56:06 51°28.097 3°7.574 294.7 14 288.2 13.2
2002-05-03 10:57:06 51°28.171 3°7.218 294.8 14.2 288.4 14
2002-05-03 10:58:05 51°28.248 3°6.865 295 14.2 289.1 14.5
2002-05-03 10:59:06 51°28.31 3°6.491 284.8 14.3 279.7 14.7
2002-05-03 11:00:06 51°28.351 3°6.117 287.2 14.4 281.6 15.2
2002-05-03 11:01:06 51°28.401 3°5.741 287.3 14.5 282 14.9
2002-05-03 11:02:06 51°28.449 3°5.362 286.7 14.5 281.6 15.5
2002-05-03 11:03:06 51°28.477 3°4.976 278.2 14.6 273.7 17.4
2002-05-03 11:04:06 51°28.504 3°4.59 283 14.6 278.3 19.5
2002-05-03 11:05:06 51°28.532 3°4.204 281.3 14.5 275.3 21.1
2002-05-03 11:06:06 51°28.558 3°3.826 282.7 13.2 276.3 22.1
2002-05-03 11:07:06 51°28.604 3°3.634 331.2 5 309.9 22.8
2002-05-03 11:08:06 51°28.659 3°3.618 50.5 3.3 39.3 22.9
2002-05-03 11:09:05 51°28.677 3°3.702 59.8 2.6 64 22.9
2002-05-03 11:10:06 51°28.679 3°3.726 75 0.7 109.7 22.8
2002-05-03 11:11:06 51°28.674 3°3.739 70.3 0.5 138.9 22.8
2002-05-03 11:12:06 51°28.667 3°3.738 63.3 0.4 194.6 22.8
2002-05-03 11:13:06 51°28.661 3°3.732 56 0.4 221.9 22.8
2002-05-03 11:14:06 51°28.655 3°3.72 49.2 0.6 232 22.8
2002-05-03 11:15:06 51°28.649 3°3.705 41.8 0.7 237.9 22.9
2002-05-03 11:16:06 51°28.643 3°3.687 36.8 0.8 244.6 22.8
2002-05-03 11:17:06 51°28.641 3°3.671 34 0.6 268.2 22.8
2002-05-03 11:18:06 51°28.643 3°3.657 29.2 0.7 302.2 22.8
2002-05-03 11:19:06 51°28.651 3°3.642 23.3 0.8 312.8 22.8
2002-05-03 11:20:06 51°28.66 3°3.633 45.5 0.7 11.5 22.8
2002-05-03 11:21:06 51°28.662 3°3.688 87.3 3.2 94.7 22.9
2002-05-03 11:22:06 51°28.658 3°3.739 87.3 0.6 160.7 22.8
2002-05-03 11:23:06 51°28.645 3°3.742 93.3 0.9 195.6 22.8
2002-05-03 11:24:06 51°28.63 3°3.739 90 1 151.5 22.8
2002-05-03 11:25:06 51°28.619 3°3.744 77.3 0.6 177 22.8
2002-05-03 11:26:06 51°28.613 3°3.741 57.5 0.3 217 22.8
2002-05-03 11:27:06 51°28.612 3°3.732 39.8 0.5 272.8 22.8
2002-05-03 11:28:06 51°28.614 3°3.718 26.5 0.8 293.5 22.8
2002-05-03 11:29:06 51°28.618 3°3.701 28.2 0.7 295.2 22.8
2002-05-03 11:30:06 51°28.621 3°3.69 53 0.3 271.5 22.8
2002-05-03 11:31:06 51°28.618 3°3.687 61.7 0.2 202.4 22.8
2002-05-03 11:32:06 51°28.617 3°3.68 40.2 0.4 279.2 22.7
2002-05-03 11:33:06 51°28.62 3°3.663 20.5 0.8 281.3 22.9
2002-05-03 11:34:06 51°28.624 3°3.635 5.2 1.2 287.4 22.9
2002-05-03 11:35:06 51°28.651 3°3.625 43.8 2.2 21.3 23
2002-05-03 11:36:06 51°28.664 3°3.662 77.2 1.4 84.7 22.9
2002-05-03 11:37:06 51°28.661 3°3.693 80.8 1 105.6 22.9
2002-05-03 11:38:06 51°28.654 3°3.71 86 0.7 141.3 22.8
2002-05-03 11:39:06 51°28.641 3°3.716 103.7 1 177.6 22.9
2002-05-03 11:40:06 51°28.622 3°3.713 119.7 1.3 186.3 22.8
2002-05-03 11:41:06 51°28.598 3°3.706 134.3 1.6 195.2 22.8
2002-05-03 11:42:06 51°28.571 3°3.692 148.3 1.8 200.9 22.8
2002-05-03 11:43:06 51°28.541 3°3.671 163 2.1 206.9 22.6
2002-05-03 11:44:06 51°28.509 3°3.641 180.3 2.3 212.5 22.7
2002-05-03 11:45:06 51°28.478 3°3.601 202.3 2.5 221.2 22.6
2002-05-03 11:46:06 51°28.45 3°3.55 228.3 2.6 232.4 22.6
2002-05-03 11:47:06 51°28.374 3°3.453 207 10 210.8 22.5
2002-05-03 11:48:06 51°28.181 3°3.263 209.5 14.6 211.5 22
2002-05-03 11:49:06 51°27.974 3°3.05 213.8 14.8 215.1 21.5
2002-05-03 11:50:06 51°27.783 3°2.793 223.7 15.1 222 20.3
2002-05-03 11:51:06 51°27.605 3°2.51 224.7 15.1 223.7 18.7
2002-05-03 11:52:06 51°27.422 3°2.229 225.2 15.1 224.3 15.2
2002-05-03 11:53:06 51°27.24 3°1.95 224.3 15.2 223.6 13.9
2002-05-03 11:54:06 51°27.057 3°1.672 223.3 15.2 222.8 14.3
2002-05-03 11:55:06 51°26.872 3°1.396 226.5 15.3 224.8 16
2002-05-03 11:56:06 51°26.689 3°1.117 223.8 15.2 222.5 16.9
2002-05-03 11:57:06 51°26.507 3°0.838 227.3 15.2 225.5 16.6
2002-05-03 11:58:06 51°26.33 3°0.557 226 15 224.3 17.1
2002-05-03 11:59:06 51°26.148 3°0.288 222 14.9 220.1 18.1
2002-05-03 12:00:06 51°25.953 3°0.045 217.7 14.9 216.2 19.2
2002-05-03 12:01:06 51°25.737 2°59.853 205.8 14.8 205.8 19
2002-05-03 12:02:06 51°25.51 2°59.703 200.5 14.7 200.3 18.3
2002-05-03 12:03:06 51°25.279 2°59.568 200.8 14.8 200.8 17.4
2002-05-03 12:04:06 51°25.043 2°59.484 179.2 14.5 181.2 16.8
2002-05-03 12:05:06 51°24.806 2°59.493 178.2 14.3 180.7 18.1
2002-05-03 12:06:06 51°24.568 2°59.476 180.3 14.4 182.3 15.3
2002-05-03 12:07:06 51°24.328 2°59.467 176.2 14.2 179.4 14.1
2002-05-03 12:08:06 51°24.09 2°59.461 177.8 14.4 181.3 15.8
2002-05-03 12:09:06 51°23.853 2°59.462 173.8 14.2 177.9 16.4
2002-05-03 12:10:06 51°23.624 2°59.516 163.5 13.8 168 17.4
2002-05-03 12:11:06 51°23.434 2°59.559 164.7 8.8 173.8 17.8
2002-05-03 12:12:06 51°23.325 2°59.604 137 5.6 153.1 17.6
2002-05-03 12:13:06 51°23.279 2°59.692 112 4.3 125.1 17.6
2002-05-03 12:14:06 51°23.241 2°59.784 94.2 3.7 107.6 17.2
2002-05-03 12:15:06 51°23.229 2°59.889 89.3 4.6 97.3 16.8
2002-05-03 12:16:06 51°23.229 3°0.023 86 3.8 91.8 16.5
2002-05-03 12:17:06 51°23.23 3°0.041 58.3 0.1 100 16.5
2002-05-03 12:18:06 51°23.23 3°0.036 50 0.3 256.9 16.5
2002-05-03 12:19:06 51°23.227 3°0.027 47.5 0.4 254.3 16.5
2002-05-03 12:20:06 51°23.226 3°0.016 42.3 0.4 261.9 16.6
2002-05-03 12:21:06 51°23.224 3°0.003 43.2 0.5 260 16.6
2002-05-03 12:22:06 51°23.222 2°59.99 45.3 0.5 252.4 16.7
2002-05-03 12:23:06 51°23.22 2°59.979 46.5 0.3 278.3 16.7
2002-05-03 12:24:06 51°23.225 2°59.977 44.8 0.4 358.3 16.7
2002-05-03 12:25:06 51°23.236 2°59.979 41.8 0.8 7.6 16.8
2002-05-03 12:26:06 51°23.248 2°59.982 51.2 0.5 18.5 16.9
2002-05-03 12:27:06 51°23.251 2°59.986 52.3 0.2 28.8 16.9
2002-05-03 12:28:06 51°23.255 2°59.982 44.7 0.3 309.3 16.8
2002-05-03 12:29:06 51°23.257 2°59.977 48.2 0.2 291.1 17
2002-05-03 12:30:06 51°23.259 2°59.97 42.2 0.4 301.2 17
2002-05-03 12:31:06 51°23.258 2°59.964 61.5 0.2 204.4 17
2002-05-03 12:32:06 51°23.255 2°59.965 59.5 0.2 168.8 17
2002-05-03 12:33:06 51°23.253 2°59.962 50.5 0.1 242.3 17
2002-05-03 12:34:06 51°23.251 2°59.959 56.7 0.2 202 17
2002-05-03 12:35:06 51°23.247 2°59.96 64.8 0.3 161 17
2002-05-03 12:36:06 51°23.241 2°59.964 71.7 0.5 158.1 17
2002-05-03 12:37:06 51°23.236 2°59.968 62.7 0.2 155.2 16.8
2002-05-03 12:38:06 51°23.233 2°59.967 54.2 0.1 205.2 16.8
2002-05-03 12:39:06 51°23.233 2°59.966 52.2 0.1 315.6 16.8
2002-05-03 12:40:06 51°23.233 2°59.966 52.5   221.6 16.9
2002-05-03 12:41:06 51°23.231 2°59.963 53.2 0.1 175.6 16.8
2002-05-03 12:42:06 51°23.23 2°59.962 49.5 0.1 260 16.9
2002-05-03 12:43:06 51°23.232 2°59.962 46 0.1 267.9 16.9
2002-05-03 12:44:06 51°23.231 2°59.956 44.3 0.2 291.4 17
2002-05-03 12:45:06 51°23.233 2°59.952 43.5 0.2 278.1 17
2002-05-03 12:46:06 51°23.235 2°59.947 41.3 0.2 301.3 16.9
2002-05-03 12:47:06 51°23.238 2°59.942 36.5 0.6 357.2 17
2002-05-03 12:48:06 51°23.266 2°59.919 340 2.9 313.4 17.2
2002-05-03 12:49:06 51°23.261 2°59.778 240.8 8.4 241.7 17.6
2002-05-03 12:50:06 51°23.159 2°59.501 241.2 14.1 240 17.3
2002-05-03 12:51:06 51°23.038 2°59.158 242.8 15 241.7 17.5
2002-05-03 12:52:06 51°22.921 2°58.806 242.8 15 242.1 17.5
2002-05-03 12:53:06 51°22.803 2°58.453 243.3 15.1 241.5 17.5
2002-05-03 12:54:06 51°22.682 2°58.101 240.3 15.1 239.6 17.5
2002-05-03 12:55:06 51°22.541 2°57.77 234.3 15.2 234.9 17.4
2002-05-03 12:56:06 51°22.392 2°57.445 233.2 15.1 232.7 17.5
2002-05-03 12:57:06 51°22.242 2°57.124 234 15 233.3 17.4
2002-05-03 12:58:06 51°22.093 2°56.805 233.8 15 233.4 17.3
2002-05-03 12:59:06 51°21.948 2°56.481 238 15 237 17.2
2002-05-03 13:00:06 51°21.819 2°56.141 238.8 14.9 238.8 17.2
2002-05-03 13:01:06 51°21.696 2°55.791 246.2 15.1 243.5 17.1
2002-05-03 13:02:07 51°21.6 2°55.414 250.5 15.1 247.9 17.1
2002-05-03 13:03:06 51°21.502 2°55.051 249.2 15.1 246.6 17
2002-05-03 13:04:06 51°21.403 2°54.681 249.2 15.2 246.7 16.8
2002-05-03 13:05:06 51°21.303 2°54.312 248.8 15.1 246.9 16.7
2002-05-03 13:06:06 51°21.205 2°53.942 248.7 15.1 246.9 16.6
2002-05-03 13:07:06 51°21.107 2°53.573 248.2 15.1 246.7 16.3
2002-05-03 13:08:06 51°21.009 2°53.203 249.2 15.1 246.9 15.9
2002-05-03 13:09:06 51°20.911 2°52.833 248.3 15 246.5 15
2002-05-03 13:10:06 51°20.813 2°52.464 248.8 15.1 247.2 14.1
2002-05-03 13:11:06 51°20.714 2°52.096 249.2 15.1 247 13.5
2002-05-03 13:12:06 51°20.617 2°51.727 248.7 15.1 246.9 14
2002-05-03 13:13:06 51°20.517 2°51.36 248.2 15 246.3 15.2
2002-05-03 13:14:06 51°20.419 2°50.994 248.7 14.9 247 15.9
2002-05-03 13:15:06 51°20.319 2°50.632 248.7 14.9 246.4 15.9
2002-05-03 13:16:06 51°20.229 2°50.264 252.3 15 250.1 16.6
2002-05-03 13:17:06 51°20.138 2°49.894 251.2 14.9 249 17.7
2002-05-03 13:18:06 51°20.047 2°49.525 254 15 250.7 19
2002-05-03 13:19:06 51°19.948 2°49.16 242.5 15 241.2 19.8
2002-05-03 13:20:06 51°19.83 2°48.809 243.8 15.1 242 20.3
2002-05-03 13:21:06 51°19.781 2°48.426 276.7 14.8 269.7 21.6
2002-05-03 13:22:06 51°19.774 2°48.064 288.3 10.7 276.8 22.1
2002-05-03 13:23:06 51°19.836 2°47.903 314.5 6.6 300.2 22.4
2002-05-03 13:24:06 51°19.889 2°47.76 336.7 4.9 311.3 22.2
2002-05-03 13:25:06 51°19.913 2°47.697 359.2 1.8 252 22.3
2002-05-03 13:26:06 51°19.922 2°47.677 48.8 2.1 29.9 22.2
2002-05-03 13:27:06 51°19.926 2°47.752 80.8 3.6 91.5 22.3
2002-05-03 13:28:06 51°19.916 2°47.823 100.3 1.4 150.9 22.4
2002-05-03 13:29:06 51°19.894 2°47.833 97.8 1.4 159.1 22.4
2002-05-03 13:30:06 51°19.876 2°47.848 86.7 1.1 159 22.4
2002-05-03 13:31:06 51°19.861 2°47.851 81.2 0.9 182.1 22.4
2002-05-03 13:32:06 51°19.845 2°47.844 77.7 1 198.5 22.4
2002-05-03 13:33:06 51°19.829 2°47.831 74.2 1.2 210 22.5
2002-05-03 13:34:06 51°19.813 2°47.814 71.2 1.2 216.5 22.3
2002-05-03 13:35:06 51°19.797 2°47.796 74.3 1 206 22.4
2002-05-03 13:36:06 51°19.78 2°47.801 87 1.2 147 22.5
2002-05-03 13:37:06 51°19.776 2°47.815 47.5 0.4 54.3 22.2
2002-05-03 13:38:07 51°19.786 2°47.81 21.3 0.9 331.6 22.5
2002-05-03 13:39:06 51°19.809 2°47.793 9.3 2.2 338.2 22.4
2002-05-03 13:40:06 51°19.852 2°47.77 12.2 2.7 345 22.4
2002-05-03 13:41:06 51°19.884 2°47.742 352 2.2 313.5 22.5
2002-05-03 13:42:06 51°19.902 2°47.689 340.3 2.3 293.7 22.5
2002-05-03 13:43:06 51°19.914 2°47.64 352 1.8 290.1 22.4
2002-05-03 13:44:06 51°19.92 2°47.593 337 1.8 273.8 22.4
2002-05-03 13:45:07 51°19.945 2°47.544 14 3 345.4 22.3
2002-05-03 13:46:06 51°19.963 2°47.61 92.3 4.2 98.5 22.4
2002-05-03 13:47:06 51°19.92 2°47.733 124.2 5.3 136.9 22.5
2002-05-03 13:48:06 51°19.884 2°47.747 172.7 1.2 239.9 22.5
2002-05-03 13:49:07 51°19.871 2°47.72 190.7 1.3 226.4 22.5
2002-05-03 13:50:06 51°19.85 2°47.694 205.5 1.8 218.8 22.4
2002-05-03 13:51:06 51°19.824 2°47.653 240.8 2.4 229.2 22.4
2002-05-03 13:52:06 51°19.809 2°47.568 297.3 4.2 273.5 22.3
2002-05-03 13:53:06 51°19.827 2°47.489 328.2 2.3 279.5 22.4
2002-05-03 13:54:06 51°19.829 2°47.434 322.8 2 266.2 22.4
2002-05-03 13:55:06 51°19.825 2°47.386 320.8 1.8 259.1 22.1
2002-05-03 13:56:06 51°19.817 2°47.34 316.2 1.8 249 22.2
2002-05-03 13:57:06 51°19.852 2°47.295 22.5 5.2 7 21.8
2002-05-03 13:58:06 51°19.873 2°47.458 95 8.3 98.6 22.3
2002-05-03 13:59:06 51°19.869 2°47.669 82 6.7 85.8 22.6
2002-05-03 14:00:06 51°19.893 2°47.811 69.3 4.1 71.4 22.6
2002-05-03 14:01:06 51°19.904 2°47.828 31.8 0.6 3.1 22.7
2002-05-03 14:02:06 51°19.911 2°47.826 38.2 0.4 350.9 22.7
2002-05-03 14:03:06 51°19.916 2°47.824 37.3 0.3 353.7 22.8
2002-05-03 14:04:07 51°19.922 2°47.825 36.2 0.3 345.9 22.7
2002-05-03 14:05:07 51°19.926 2°47.818 20.5 0.5 301 22.7
2002-05-03 14:06:06 51°19.931 2°47.801 1.2 0.9 287.8 22.7
2002-05-03 14:07:06 51°19.932 2°47.772 333.7 1.3 267.5 22.7
2002-05-03 14:08:07 51°19.927 2°47.729 312.5 1.8 258.6 22.6
2002-05-03 14:09:07 51°19.921 2°47.682 316.7 1.8 260.6 22.7
2002-05-03 14:10:06 51°19.917 2°47.638 327.7 1.6 261.7 22.6
2002-05-03 14:11:07 51°19.915 2°47.598 343 1.4 263.1 22.6
2002-05-03 14:12:06 51°19.914 2°47.567 3.5 1.1 265.4 22.5
2002-05-03 14:13:06 51°19.911 2°47.545 31.2 0.7 252.8 22.5
2002-05-03 14:14:06 51°19.907 2°47.54 71.7 0.5 125.9 22.5
2002-05-03 14:15:06 51°19.9 2°47.569 86.3 1.4 116 22.5
2002-05-03 14:16:06 51°19.886 2°47.599 103.8 1.5 137.2 22.7
2002-05-03 14:17:06 51°19.85 2°47.629 155.8 3.6 164.5 22.7
2002-05-03 14:18:06 51°19.764 2°47.525 240.7 10.8 236.9 22.5
2002-05-03 14:19:06 51°19.653 2°47.209 246.8 14.4 244.4 22.3
2002-05-03 14:20:06 51°19.544 2°46.866 249 14.5 244.5 22.1
2002-05-03 14:21:07 51°19.444 2°46.504 250.3 14.7 246.5 21
2002-05-03 14:22:07 51°19.347 2°46.146 250.2 14.7 247.1 19.3
2002-05-03 14:23:06 51°19.254 2°45.795 252 14.4 248.5 16.5
2002-05-03 14:24:06 51°19.165 2°45.439 253.3 14.4 248.6 13.5
2002-05-03 14:25:06 51°19.084 2°45.085 253.7 14 249.6 11.9
2002-05-03 14:26:07 51°19.004 2°44.733 257 13.8 252.1 12.3
2002-05-03 14:27:06 51°18.939 2°44.385 257.3 14 253.2 17.9
2002-05-03 14:28:06 51°18.878 2°44.052 265.7 10.2 259 22.8
2002-05-03 14:29:07 51°18.916 2°43.91 339.5 4.2 322.2 23.3
2002-05-03 14:30:06 51°18.945 2°43.884 13.3 0.6 294.1 23.4
2002-05-03 14:31:06 51°18.948 2°43.882 50.8 0.2 97.6 23.4
2002-05-03 14:32:06 51°18.942 2°43.89 68.2 0.6 131.4 23.5
2002-05-03 14:33:07 51°18.936 2°43.904 60.3 0.6 121.5 23.2
2002-05-03 14:34:06 51°18.933 2°43.919 48 0.5 102 23.4
2002-05-03 14:35:06 51°18.931 2°43.929 36 0.3 87.2 23.2
2002-05-03 14:36:07 51°18.932 2°43.934 21.8 0.1 55.3 23.3
2002-05-03 14:37:06 51°18.934 2°43.931 4 0.3 315.1 23.3
2002-05-03 14:38:07 51°18.936 2°43.918 338.8 0.7 276.4 23.6
2002-05-03 14:39:06 51°18.938 2°43.894 322 1 275.7 23.5
2002-05-03 14:40:07 51°18.941 2°43.862 327.3 1.2 281.8 23.6
2002-05-03 14:41:06 51°18.945 2°43.837 338.3 0.9 298.2 23.6
2002-05-03 14:42:06 51°18.954 2°43.819 353.3 0.5 302.9 23.8
2002-05-03 14:43:06 51°18.952 2°43.808 354 0.6 223 23.9
2002-05-03 14:44:07 51°18.939 2°43.798 346.8 0.9 197.3 23.9
2002-05-03 14:45:06 51°18.924 2°43.79 338.8 0.7 212.1 23.8
2002-05-03 14:46:06 51°18.928 2°43.773 351.8 1.1 321.2 24
2002-05-03 14:47:07 51°18.942 2°43.764 9.7 0.6 341.3 24
2002-05-03 14:48:06 51°18.946 2°43.764 20.2 0.1 43.8 24
2002-05-03 14:49:07 51°18.944 2°43.765 30.3 0.3 165.8 24
2002-05-03 14:50:07 51°18.945 2°43.774 23 0.5 46.2 24
2002-05-03 14:51:07 51°18.951 2°43.778 4.8 0.3 358.5 24
2002-05-03 14:52:06 51°18.954 2°43.772 346.3 0.4 290.1 24.1
2002-05-03 14:53:06 51°18.957 2°43.759 335.8 0.6 275 24.1
2002-05-03 14:54:06 51°18.956 2°43.741 334.5 0.6 270.5 24.2
2002-05-03 14:55:06 51°18.957 2°43.724 336.8 0.6 277.8 24.3
2002-05-03 14:56:06 51°18.959 2°43.707 343.5 0.6 281.7 24.3
2002-05-03 14:57:07 51°18.962 2°43.696 352.2 0.4 297.2 24.3
2002-05-03 14:58:06 51°18.968 2°43.688 6.8 0.9 352.5 24.3
2002-05-03 14:59:07 51°18.979 2°43.695 39.5 0.7 40 24.3
2002-05-03 15:00:07 51°18.983 2°43.718 76.5 1 87.3 24.3
2002-05-03 15:01:06 51°18.974 2°43.748 112.5 1.5 124.4 24.2
2002-05-03 15:02:06 51°18.954 2°43.779 139 1.7 145.3 24.2
2002-05-03 15:03:06 51°18.926 2°43.8 163.2 1.9 163.8 24.1
2002-05-03 15:04:07 51°18.893 2°43.804 190.8 2 184.2 24.1
2002-05-03 15:05:06 51°18.824 2°43.782 191 7.7 190.3 24.2
2002-05-03 15:06:06 51°18.633 2°43.829 164.5 13.1 163.1 23.6
2002-05-03 15:07:06 51°18.42 2°43.932 166.3 13.5 164.2 14
2002-05-03 15:08:06 51°18.201 2°44.034 165.2 13.8 163.2 12.9
2002-05-03 15:09:06 51°17.981 2°44.143 163.2 14 161.4 17.9
2002-05-03 15:10:06 51°17.763 2°44.259 165 13.7 162.5 19.2
2002-05-03 15:11:06 51°17.546 2°44.37 164.5 13.8 162.5 18.8
2002-05-03 15:12:07 51°17.323 2°44.484 164 13.7 162.2 17.7
2002-05-03 15:13:06 51°17.107 2°44.595 164.2 13.9 162.2 17.4
2002-05-03 15:14:06 51°16.89 2°44.717 161 13.9 158.5 15.5
2002-05-03 15:15:07 51°16.687 2°44.904 148.7 13.9 146.6 13.3
2002-05-03 15:16:06 51°16.513 2°45.135 136.8 13.9 135.1 13
2002-05-03 15:17:07 51°16.384 2°45.444 121 13.8 118.2 12.9
2002-05-03 15:18:06 51°16.281 2°45.768 118.3 13.8 115.8 11.9
2002-05-03 15:19:07 51°16.209 2°46.125 106.8 13.9 104.9 12
2002-05-03 15:20:07 51°16.124 2°46.473 116.7 14 113.3 14.4
2002-05-03 15:21:06 51°16.053 2°46.824 110.2 14.3 106.4 16.6
2002-05-03 15:22:06 51°15.982 2°47.186 111.2 14.3 107.1 18.3
2002-05-03 15:23:06 51°15.911 2°47.549 110.2 14.4 107.3 17.9
2002-05-03 15:24:06 51°15.838 2°47.909 109.7 14.3 106.9 16.3
2002-05-03 15:25:06 51°15.775 2°48.271 108.7 14.1 105.8 14.2
2002-05-03 15:26:07 51°15.708 2°48.635 110 14.1 106.4 12.9
2002-05-03 15:27:06 51°15.643 2°48.99 109.2 14.2 106.3 12.5
2002-05-03 15:28:08 51°15.577 2°49.364 108.3 14.3 105.4 14.4
2002-05-03 15:29:06 51°15.522 2°49.719 106.5 14.2 103.1 15
2002-05-03 15:30:07 51°15.466 2°50.093 106.7 14.3 103.5 15
2002-05-03 15:31:07 51°15.427 2°50.465 94.3 14.2 92.1 14.9
2002-05-03 15:32:07 51°15.421 2°50.846 96.8 14.3 93.2 14.8
2002-05-03 15:33:08 51°15.404 2°51.232 99 14.3 95.4 14.6
2002-05-03 15:34:07 51°15.338 2°51.585 118.2 14.2 113.3 14.3
2002-05-03 15:35:07 51°15.248 2°51.93 116.3 14 111.7 13.9
2002-05-03 15:36:07 51°15.147 2°52.267 121.5 14.1 116.8 13.3
2002-05-03 15:37:07 51°15.046 2°52.606 120.2 14.1 115.7 12.7
2002-05-03 15:38:08 51°14.946 2°52.95 119.8 14.1 114.4 12.3
2002-05-03 15:39:07 51°14.847 2°53.274 122 13.3 116.5 12.1
2002-05-03 15:40:07 51°14.74 2°53.54 127.5 11 121.5 12.1
2002-05-03 15:41:07 51°14.674 2°53.744 126.2 6.9 117.9 12
2002-05-03 15:42:07 51°14.627 2°53.872 134 5 122.4 12.6
2002-05-03 15:43:07 51°14.589 2°53.979 128.3 4.4 117 12.7
2002-05-03 15:44:08 51°14.561 2°54.085 119.3 4.2 109.2 12.6
2002-05-03 15:45:08 51°14.526 2°54.228 118.3 8.4 111.5 12.4
2002-05-03 15:46:08 51°14.475 2°54.526 105.8 12.5 101.2 12
2002-05-03 15:47:07 51°14.419 2°54.84 117.2 12.3 110.5 12.1
2002-05-03 15:48:07 51°14.332 2°55.108 131.2 10.1 127.7 12.4
2002-05-03 15:49:07 51°14.263 2°55.264 133.3 6.1 129.7 12.8
2002-05-03 15:50:07 51°14.195 2°55.362 145.8 5.2 141.6 12.8
2002-05-03 15:51:08 51°14.121 2°55.43 153.7 5.1 153.2 12.9
2002-05-03 15:52:07 51°14.046 2°55.488 158.5 5.1 155.5 12.9
2002-05-03 15:53:07 51°13.966 2°55.538 160.5 5.2 158.3 12.4
2002-05-03 15:54:07 51°13.888 2°55.589 161.7 4.9 159.2 11.9
2002-05-03 15:55:07 51°13.822 2°55.637 152.7 3.8 151.2 12.6
2002-05-03 15:56:08 51°13.777 2°55.689 144.3 3 141.7 12.3
2002-05-03 15:57:07 51°13.742 2°55.733 141.5 2.6 141.5 12.1
2002-05-03 15:58:07 51°13.716 2°55.787 116.8 2.6 116.6 12.4
2002-05-03 15:59:07 51°13.703 2°55.843 111.8 2.2 109.9 9.9
2002-05-03 16:00:07 51°13.692 2°55.889 112.8 1 108.2 10
2002-05-03 16:01:07 51°13.69 2°55.899 117.7 0.5 129 10.1
2002-05-03 16:02:07 51°13.687 2°55.905 115.7 0.1 65.7 10